Roza A — TCRB7 — position and weather

sailwx.info

Track history (hours):
 
Tides and Currents Weather Stations Pressure Air Temp Water Temp Dewpoint Dewpoint Depression Visibility Wind Speed Wind Dir Waves Ship Positions

Roza A

Last reported at 2014-Sep-02 07:11 UTC. Time now 2014-Sep-03 07:13 UTC.
Position N 36°25' E 022°50'.

Length 169 m; draft 8.2 m.

Type: Ship (hazmat cat A). MMSI: 271001057.

Date/timePositionNaut miles runAvg speedWind from/ knotsBaromVisibWave heightAir tempDewpointWater temp
2014-Sep-02 07:11N 36°25' E 022°50'24 9.1
2014-Sep-02 04:33N 36°31' E 023°18'1010.4
2014-Sep-02 03:33N 36°39' E 023°25'1110.8
2014-Sep-02 02:32N 36°49' E 023°33'1111.3
2014-Sep-02 01:33N 36°59' E 023°39'1110.7
2014-Sep-02 00:33N 37°08' E 023°45'1010.2
2014-Sep-01 23:33N 37°17' E 023°51'12 9.9
2014-Sep-01 22:23N 37°27' E 023°59'8 9.9
2014-Sep-01 21:33N 37°34' E 024°05'14 9.9
2014-Sep-01 20:08N 37°44' E 024°17'610.5
2014-Sep-01 19:33N 37°47' E 024°23'1110.5
2014-Sep-01 18:33N 37°54' E 024°33'1610.6
2014-Sep-01 17:05N 38°06' E 024°46'611.3
2014-Sep-01 16:33N 38°09' E 024°53'1210.9
2014-Sep-01 15:28N 38°15' E 025°06'1010.7
2014-Sep-01 14:33N 38°20' E 025°17'1110.8
2014-Sep-01 13:33N 38°26' E 025°28'1110.7
2014-Sep-01 12:33N 38°31' E 025°40'1010.4
2014-Sep-01 11:33N 38°38' E 025°50'184 4.2
2014-Aug-30 15:30N 40°25' E 029°05'0 0.0
2014-Aug-30 14:30N 40°25' E 029°05'0 0.0
2014-Aug-30 13:24N 40°25' E 029°05'0 0.0
2014-Aug-30 12:30N 40°25' E 029°05'0 0.0
2014-Aug-30 11:24N 40°25' E 029°05'0 0.0
2014-Aug-30 10:24N 40°25' E 029°05'0 0.0
2014-Aug-30 07:19N 40°25' E 029°05'1810.2
2014-Aug-30 05:33N 40°33' E 028°43'1514.6
2014-Aug-30 04:33N 40°41' E 028°59'1515.3
2014-Aug-30 03:33N 40°44' E 029°19'1110.9
2014-Aug-30 02:32N 40°45' E 029°34'7 0.3
2014-Aug-29 05:09N 40°46' E 029°43'0 0.0
2014-Aug-28 20:27N 40°46' E 029°43'5 4.9
2014-Aug-28 19:32N 40°45' E 029°37'8 8.4
2014-Aug-28 18:33N 40°44' E 029°26'9 9.2
2014-Aug-28 17:33N 40°44' E 029°14'1413.7
2014-Aug-28 16:33N 40°44' E 028°56'1212.4
2014-Aug-28 15:33N 40°51' E 028°42'7 0.2
2014-Aug-27 09:29N 40°57' E 028°41'4 0.2
2014-Aug-26 15:04N 40°56' E 028°36'8212.1
2014-Aug-26 08:20N 40°29' E 026°55'5711.5
2014-Aug-26 03:23N 39°56' E 025°54'1112.7
2014-Aug-26 02:32N 39°51' E 025°42'2812.1
2014-Aug-26 00:14N 39°45' E 025°06'90 2.3
2014-Aug-24 08:12N 38°18' E 024°34'914.3
2014-Aug-24 07:33N 38°10' E 024°39'1413.8
2014-Aug-24 06:31N 37°56' E 024°35'2914.6
2014-Aug-24 04:33N 37°36' E 024°09'1514.6
2014-Aug-24 03:33N 37°36' E 023°50'1312.8
2014-Aug-24 02:33N 37°45' E 023°39'1212.0
2014-Aug-24 01:33N 37°57' E 023°36'0 0.3
2014-Aug-24 00:32N 37°57' E 023°36'0 0.0
2014-Aug-23 23:32N 37°57' E 023°36'0 0.0
2014-Aug-23 22:32N 37°57' E 023°36'0 0.0
2014-Aug-23 21:32N 37°57' E 023°36'0 0.0
2014-Aug-23 20:32N 37°57' E 023°36'0 0.0
2014-Aug-23 19:32N 37°57' E 023°36'  
Track history (hours):
 
Tides and Currents Weather Stations Pressure Air Temp Water Temp Dewpoint Dewpoint Depression Visibility Wind Speed Wind Dir Waves Ship Positions

Roza A

Last reported at 2014-Sep-02 07:11 UTC. Time now 2014-Sep-03 07:13 UTC.
Position N 36°25' E 022°50'.

Length 169 m; draft 8.2 m.

Type: Ship (hazmat cat A). MMSI: 271001057.

Date/timePositionNaut miles runAvg speedWind from/ knotsBaromVisibWave heightAir tempDewpointWater temp
2014-Sep-02 07:11N 36°25' E 022°50'24 9.1
2014-Sep-02 04:33N 36°31' E 023°18'1010.4
2014-Sep-02 03:33N 36°39' E 023°25'1110.8
2014-Sep-02 02:32N 36°49' E 023°33'1111.3
2014-Sep-02 01:33N 36°59' E 023°39'1110.7
2014-Sep-02 00:33N 37°08' E 023°45'1010.2
2014-Sep-01 23:33N 37°17' E 023°51'12 9.9
2014-Sep-01 22:23N 37°27' E 023°59'8 9.9
2014-Sep-01 21:33N 37°34' E 024°05'14 9.9
2014-Sep-01 20:08N 37°44' E 024°17'610.5
2014-Sep-01 19:33N 37°47' E 024°23'1110.5
2014-Sep-01 18:33N 37°54' E 024°33'1610.6
2014-Sep-01 17:05N 38°06' E 024°46'611.3
2014-Sep-01 16:33N 38°09' E 024°53'1210.9
2014-Sep-01 15:28N 38°15' E 025°06'1010.7
2014-Sep-01 14:33N 38°20' E 025°17'1110.8
2014-Sep-01 13:33N 38°26' E 025°28'1110.7
2014-Sep-01 12:33N 38°31' E 025°40'1010.4
2014-Sep-01 11:33N 38°38' E 025°50'184 4.2
2014-Aug-30 15:30N 40°25' E 029°05'0 0.0
2014-Aug-30 14:30N 40°25' E 029°05'0 0.0
2014-Aug-30 13:24N 40°25' E 029°05'0 0.0
2014-Aug-30 12:30N 40°25' E 029°05'0 0.0
2014-Aug-30 11:24N 40°25' E 029°05'0 0.0
2014-Aug-30 10:24N 40°25' E 029°05'0 0.0
2014-Aug-30 07:19N 40°25' E 029°05'1810.2
2014-Aug-30 05:33N 40°33' E 028°43'1514.6
2014-Aug-30 04:33N 40°41' E 028°59'1515.3
2014-Aug-30 03:33N 40°44' E 029°19'1110.9
2014-Aug-30 02:32N 40°45' E 029°34'7 0.3
2014-Aug-29 05:09N 40°46' E 029°43'0 0.0
2014-Aug-28 20:27N 40°46' E 029°43'5 4.9
2014-Aug-28 19:32N 40°45' E 029°37'8 8.4
2014-Aug-28 18:33N 40°44' E 029°26'9 9.2
2014-Aug-28 17:33N 40°44' E 029°14'1413.7
2014-Aug-28 16:33N 40°44' E 028°56'1212.4
2014-Aug-28 15:33N 40°51' E 028°42'7 0.2
2014-Aug-27 09:29N 40°57' E 028°41'4 0.2
2014-Aug-26 15:04N 40°56' E 028°36'8212.1
2014-Aug-26 08:20N 40°29' E 026°55'5711.5
2014-Aug-26 03:23N 39°56' E 025°54'1112.7
2014-Aug-26 02:32N 39°51' E 025°42'2812.1
2014-Aug-26 00:14N 39°45' E 025°06'90 2.3
2014-Aug-24 08:12N 38°18' E 024°34'914.3
2014-Aug-24 07:33N 38°10' E 024°39'1413.8
2014-Aug-24 06:31N 37°56' E 024°35'2914.6
2014-Aug-24 04:33N 37°36' E 024°09'1514.6
2014-Aug-24 03:33N 37°36' E 023°50'1312.8
2014-Aug-24 02:33N 37°45' E 023°39'1212.0
2014-Aug-24 01:33N 37°57' E 023°36'0 0.3
2014-Aug-24 00:32N 37°57' E 023°36'0 0.0
2014-Aug-23 23:32N 37°57' E 023°36'0 0.0
2014-Aug-23 22:32N 37°57' E 023°36'0 0.0
2014-Aug-23 21:32N 37°57' E 023°36'0 0.0
2014-Aug-23 20:32N 37°57' E 023°36'0 0.0
2014-Aug-23 19:32N 37°57' E 023°36'  

Dump ship's entire track history